Time;durP1;ratioP1;P1;durP2;ratioP2;P2;SDS_P1;SDS_P2;PMS_P1;PMS_P2;Temp;Humidity;BMP_temperature;BMP_pressure;BME280_temperature;BME280_humidity;BME280_pressure;Samples;Min_cycle;Max_cycle;Signal;HPM_P1;HPM_P2
2023/07/02 00:00:54;;;;;;;15.70;5.97;;;16.10;99.90;;;;;;5050125;28;20389;-79
2023/07/02 00:03:21;;;;;;;13.50;5.45;;;16.10;99.90;;;;;;5049558;28;20040;-78
2023/07/02 00:05:50;;;;;;;16.40;5.38;;;16.10;99.90;;;;;;5048523;28;20029;-78
2023/07/02 00:08:15;;;;;;;17.20;5.97;;;16.00;99.90;;;;;;5049032;28;20033;-78
2023/07/02 00:10:41;;;;;;;16.05;6.35;;;16.00;99.90;;;;;;5049853;28;20052;-78
2023/07/02 00:13:07;;;;;;;14.80;6.20;;;16.00;99.90;;;;;;5064387;28;20080;-78
2023/07/02 00:15:32;;;;;;;19.33;6.25;;;15.90;99.90;;;;;;5033497;28;20025;-78
2023/07/02 00:17:58;;;;;;;16.98;6.32;;;15.90;99.90;;;;;;5049972;28;20094;-78
2023/07/02 00:20:24;;;;;;;14.63;6.28;;;15.90;99.90;;;;;;5048984;28;20057;-78
2023/07/02 00:22:50;;;;;;;14.40;6.35;;;15.90;99.90;;;;;;5048998;28;20045;-78
2023/07/02 00:25:15;;;;;;;15.65;6.82;;;15.90;99.90;;;;;;5047960;28;20082;-78
2023/07/02 00:27:41;;;;;;;21.90;6.75;;;15.90;99.90;;;;;;5046581;28;20984;-78
2023/07/02 00:30:07;;;;;;;14.75;5.60;;;15.90;99.90;;;;;;5048813;28;20040;-78
2023/07/02 00:32:33;;;;;;;17.92;6.30;;;15.90;99.90;;;;;;5046902;28;20064;-78
2023/07/02 00:34:58;;;;;;;15.60;6.28;;;15.90;99.90;;;;;;5048895;28;20106;-78
2023/07/02 00:37:24;;;;;;;17.60;6.07;;;15.90;99.90;;;;;;5048749;28;20166;-78
2023/07/02 00:39:50;;;;;;;17.42;6.45;;;15.80;99.90;;;;;;5065817;28;20029;-78
2023/07/02 00:42:16;;;;;;;23.23;7.47;;;15.80;99.90;;;;;;5048747;28;20041;-78
2023/07/02 00:44:42;;;;;;;18.77;6.90;;;15.80;99.90;;;;;;5048831;28;20052;-78
2023/07/02 00:47:11;;;;;;;18.35;6.72;;;15.70;99.90;;;;;;5048321;28;20037;-78
2023/07/02 00:49:37;;;;;;;20.45;7.25;;;15.70;99.90;;;;;;5064262;28;20064;-78
2023/07/02 00:52:03;;;;;;;17.40;7.15;;;15.70;99.90;;;;;;5048658;28;20068;-78
2023/07/02 00:54:30;;;;;;;17.10;6.72;;;15.70;99.90;;;;;;5066195;28;20037;-78
2023/07/02 00:56:55;;;;;;;24.55;7.47;;;15.70;99.90;;;;;;5065812;28;20080;-78
2023/07/02 00:59:21;;;;;;;18.67;6.95;;;15.70;99.90;;;;;;5048503;28;20056;-78
2023/07/02 01:01:52;;;;;;;16.15;6.45;;;15.60;99.90;;;;;;5048807;28;20087;-78
2023/07/02 01:04:19;;;;;;;17.00;6.70;;;15.60;99.90;;;;;;5048497;28;20056;-78
2023/07/02 01:06:45;;;;;;;20.33;7.28;;;15.60;99.90;;;;;;5048105;28;20036;-78
2023/07/02 01:09:11;;;;;;;19.02;7.22;;;15.60;99.90;;;;;;5047548;28;20739;-78
2023/07/02 01:11:45;;;;;;;17.83;6.63;;;15.50;99.90;;;;;;5048832;28;20068;-78
2023/07/02 01:14:14;;;;;;;16.83;6.40;;;15.50;99.90;;;;;;5048994;28;20039;-78
2023/07/02 01:16:43;;;;;;;17.88;6.43;;;15.50;99.90;;;;;;5032299;28;20505;-78
2023/07/02 01:19:18;;;;;;;19.08;6.85;;;15.40;99.90;;;;;;5047718;28;20045;-78
2023/07/02 01:21:45;;;;;;;19.00;6.55;;;15.40;99.90;;;;;;5048432;28;20041;-78
2023/07/02 01:24:11;;;;;;;21.98;7.10;;;15.40;99.90;;;;;;5049272;28;20045;-78
2023/07/02 01:26:37;;;;;;;23.25;7.53;;;15.30;99.90;;;;;;5064577;28;20667;-78
2023/07/02 01:29:20;;;;;;;19.60;6.78;;;15.30;99.90;;;;;;5060954;28;20121;-79
2023/07/02 01:31:47;;;;;;;25.17;7.97;;;15.30;99.90;;;;;;5048182;28;20041;-78
2023/07/02 01:34:13;;;;;;;19.08;6.97;;;15.30;99.90;;;;;;5068270;28;20373;-78
2023/07/02 01:36:40;;;;;;;20.63;7.57;;;15.20;99.90;;;;;;5035778;28;20076;-78
2023/07/02 01:39:05;;;;;;;17.50;6.43;;;15.20;99.90;;;;;;5050503;28;20037;-79
2023/07/02 01:41:41;;;;;;;16.48;6.65;;;15.20;99.90;;;;;;5050500;28;20090;-78
2023/07/02 01:44:06;;;;;;;17.67;6.88;;;15.10;99.90;;;;;;5067698;28;20562;-78
2023/07/02 01:46:32;;;;;;;21.13;7.63;;;15.10;99.90;;;;;;5051688;28;20112;-78
2023/07/02 01:48:57;;;;;;;18.60;6.40;;;15.10;99.90;;;;;;5052271;28;20055;-78
2023/07/02 01:51:23;;;;;;;24.63;7.32;;;15.00;99.90;;;;;;5050965;28;20041;-78
2023/07/02 01:53:48;;;;;;;22.40;7.70;;;15.00;99.90;;;;;;5052326;28;20032;-78
2023/07/02 01:56:14;;;;;;;19.55;7.10;;;15.00;99.90;;;;;;5034427;28;20028;-78
2023/07/02 01:58:39;;;;;;;23.38;8.05;;;14.90;99.90;;;;;;5052095;28;20037;-78
2023/07/02 02:01:05;;;;;;;18.42;6.95;;;14.90;99.90;;;;;;5052303;28;20048;-79
2023/07/02 02:03:30;;;;;;;17.15;7.53;;;14.90;99.90;;;;;;5067578;28;20036;-79
2023/07/02 02:05:56;;;;;;;22.63;8.13;;;14.80;99.90;;;;;;5068598;28;20041;-78
2023/07/02 02:08:21;;;;;;;21.08;7.05;;;14.80;99.90;;;;;;5068417;28;20036;-78
2023/07/02 02:10:47;;;;;;;18.90;6.97;;;14.80;99.90;;;;;;5053830;28;20566;-78
2023/07/02 02:13:12;;;;;;;20.00;6.97;;;14.80;99.90;;;;;;5050166;28;20127;-79
2023/07/02 02:15:38;;;;;;;19.25;7.72;;;14.70;99.90;;;;;;5051765;28;20041;-78
2023/07/02 02:18:03;;;;;;;20.30;7.43;;;14.70;99.90;;;;;;5052107;28;20064;-79
2023/07/02 02:20:29;;;;;;;24.17;7.15;;;14.70;99.90;;;;;;5067984;28;20033;-78
2023/07/02 02:22:54;;;;;;;19.48;7.63;;;14.70;99.90;;;;;;5048931;28;20513;-78
2023/07/02 02:25:20;;;;;;;19.65;7.15;;;14.70;99.90;;;;;;5051644;28;20128;-78
2023/07/02 02:27:46;;;;;;;29.55;7.03;;;14.60;99.90;;;;;;5051191;28;20047;-78
2023/07/02 02:30:11;;;;;;;20.05;7.35;;;14.60;99.90;;;;;;5049606;28;20045;-78
2023/07/02 02:32:37;;;;;;;20.80;7.75;;;14.60;99.90;;;;;;5033379;28;20045;-78
2023/07/02 02:35:03;;;;;;;17.38;6.93;;;14.60;99.90;;;;;;5050101;28;20460;-78
2023/07/02 02:37:29;;;;;;;20.70;7.13;;;14.50;99.90;;;;;;5050211;28;20060;-78
2023/07/02 02:39:57;;;;;;;17.50;6.72;;;14.50;99.90;;;;;;5050466;28;20044;-78
2023/07/02 02:42:22;;;;;;;20.88;7.35;;;14.50;99.90;;;;;;5050636;28;20642;-78
2023/07/02 02:44:48;;;;;;;19.58;7.13;;;14.40;99.90;;;;;;5050391;28;20094;-78
2023/07/02 02:47:13;;;;;;;25.60;7.88;;;14.40;99.90;;;;;;5050812;28;20045;-78
2023/07/02 02:49:39;;;;;;;19.65;7.43;;;14.40;99.90;;;;;;5051730;28;20094;-78
2023/07/02 02:52:05;;;;;;;20.05;6.88;;;14.30;99.90;;;;;;5049280;28;20127;-78
2023/07/02 02:54:31;;;;;;;18.17;7.32;;;14.30;99.90;;;;;;5050854;28;20037;-78
2023/07/02 02:56:57;;;;;;;21.33;7.20;;;14.30;99.90;;;;;;5049647;28;20033;-78
2023/07/02 02:59:22;;;;;;;23.05;8.23;;;14.20;99.90;;;;;;5049266;28;20116;-78
2023/07/02 03:01:48;;;;;;;22.60;7.43;;;14.20;99.90;;;;;;5051304;28;20120;-78
2023/07/02 03:04:13;;;;;;;18.90;7.38;;;14.20;99.90;;;;;;5032965;28;20045;-78
2023/07/02 03:06:39;;;;;;;22.70;8.25;;;14.20;99.90;;;;;;5051208;28;20072;-78
2023/07/02 03:09:05;;;;;;;24.15;7.63;;;14.20;99.90;;;;;;5049993;28;20047;-78
2023/07/02 03:11:30;;;;;;;20.33;7.13;;;14.10;99.90;;;;;;5033856;28;20045;-78
2023/07/02 03:13:56;;;;;;;20.52;7.20;;;14.10;99.90;;;;;;5066186;28;20029;-78
2023/07/02 03:16:22;;;;;;;22.20;7.78;;;14.10;99.90;;;;;;5050154;28;20126;-78
2023/07/02 03:18:47;;;;;;;18.27;7.10;;;14.10;99.90;;;;;;5050214;28;20040;-78
2023/07/02 03:21:13;;;;;;;17.15;7.53;;;14.10;99.90;;;;;;5049795;28;20033;-78
2023/07/02 03:23:38;;;;;;;19.17;7.03;;;14.10;99.90;;;;;;5050466;28;20068;-78
2023/07/02 03:26:04;;;;;;;19.48;7.63;;;14.10;99.90;;;;;;5049737;28;20044;-78
2023/07/02 03:28:29;;;;;;;21.98;8.18;;;14.10;99.90;;;;;;5049704;28;20036;-79
2023/07/02 03:30:55;;;;;;;18.60;7.55;;;14.00;99.90;;;;;;5050238;28;20044;-78
2023/07/02 03:33:20;;;;;;;24.90;7.88;;;14.10;99.90;;;;;;5049087;28;20060;-78
2023/07/02 03:35:46;;;;;;;19.48;7.25;;;14.00;99.90;;;;;;5065629;28;20040;-78
2023/07/02 03:38:11;;;;;;;19.88;7.25;;;14.00;99.90;;;;;;5049705;28;20452;-78
2023/07/02 03:40:37;;;;;;;21.08;8.00;;;14.00;99.90;;;;;;5048880;28;20036;-78
2023/07/02 03:43:02;;;;;;;19.58;7.53;;;14.10;99.90;;;;;;5047869;28;20045;-78
2023/07/02 03:45:28;;;;;;;18.10;7.18;;;14.10;99.90;;;;;;5033580;28;20535;-78
2023/07/02 03:47:53;;;;;;;17.42;7.25;;;14.10;99.90;;;;;;5049731;28;20032;-78
2023/07/02 03:50:19;;;;;;;22.58;7.63;;;14.20;99.90;;;;;;5050850;28;20048;-78
2023/07/02 03:52:45;;;;;;;19.50;8.73;;;14.20;99.90;;;;;;5050210;28;20106;-79
2023/07/02 03:55:10;;;;;;;18.88;7.88;;;14.20;99.90;;;;;;5050255;28;20047;-78
2023/07/02 03:57:36;;;;;;;21.13;7.28;;;14.30;99.90;;;;;;5050861;28;20037;-79
2023/07/02 04:00:02;;;;;;;18.90;6.70;;;14.30;99.90;;;;;;5050365;28;20119;-79
2023/07/02 04:02:27;;;;;;;22.02;7.28;;;14.30;99.90;;;;;;5050120;28;20045;-79
2023/07/02 04:04:53;;;;;;;17.38;6.72;;;14.30;99.90;;;;;;5050289;28;20052;-78
2023/07/02 04:07:19;;;;;;;19.02;7.50;;;14.40;99.90;;;;;;5050329;28;20045;-78
2023/07/02 04:09:44;;;;;;;21.67;7.38;;;14.40;99.90;;;;;;5050232;28;20037;-79
2023/07/02 04:12:10;;;;;;;21.27;7.97;;;14.50;99.90;;;;;;5049719;28;20041;-79
2023/07/02 04:14:35;;;;;;;20.20;6.80;;;14.50;99.90;;;;;;5050444;28;20037;-78
2023/07/02 04:17:03;;;;;;;22.35;7.72;;;14.50;99.90;;;;;;5050158;28;20090;-79
2023/07/02 04:19:28;;;;;;;16.92;6.75;;;14.60;99.90;;;;;;5067032;28;20045;-78
2023/07/02 04:21:54;;;;;;;17.67;7.65;;;14.70;99.90;;;;;;5049899;28;20041;-78
2023/07/02 04:24:19;;;;;;;17.02;6.68;;;14.70;99.90;;;;;;5049829;28;20484;-79
2023/07/02 04:26:45;;;;;;;16.65;7.30;;;14.80;99.90;;;;;;5033809;28;20047;-79
2023/07/02 04:29:11;;;;;;;19.58;7.60;;;14.70;99.90;;;;;;5048491;28;20040;-79
2023/07/02 04:31:36;;;;;;;25.27;7.95;;;14.80;99.90;;;;;;5050490;28;20044;-80
2023/07/02 04:34:03;;;;;;;20.27;7.80;;;14.70;99.90;;;;;;5049962;28;20037;-79
2023/07/02 04:36:28;;;;;;;26.10;7.28;;;14.70;99.90;;;;;;5050420;28;20248;-80
2023/07/02 04:38:54;;;;;;;22.75;7.63;;;14.60;99.90;;;;;;5051052;28;20038;-80
2023/07/02 04:41:19;;;;;;;23.15;7.88;;;14.50;99.90;;;;;;5050596;28;20493;-79
2023/07/02 04:43:45;;;;;;;20.25;6.80;;;14.50;99.90;;;;;;5049941;28;20033;-79
2023/07/02 04:46:12;;;;;;;21.02;7.25;;;14.50;99.90;;;;;;5050264;28;20025;-79
2023/07/02 04:48:38;;;;;;;25.80;7.45;;;14.50;99.90;;;;;;5050138;28;20105;-79
2023/07/02 04:51:04;;;;;;;22.38;7.63;;;14.60;99.90;;;;;;5050123;28;20041;-79
2023/07/02 04:53:30;;;;;;;19.30;7.25;;;14.70;99.90;;;;;;5043740;28;20047;-79
2023/07/02 04:55:57;;;;;;;22.40;7.55;;;14.80;99.90;;;;;;5049781;28;20029;-79
2023/07/02 04:58:22;;;;;;;19.05;6.90;;;14.80;99.90;;;;;;5049814;28;20178;-79
2023/07/02 05:00:48;;;;;;;20.58;7.50;;;14.90;99.90;;;;;;5050043;28;20061;-80
2023/07/02 05:03:14;;;;;;;23.70;6.88;;;15.00;99.90;;;;;;5041900;28;20032;-79
2023/07/02 05:05:39;;;;;;;18.70;7.63;;;15.10;99.90;;;;;;5049589;28;20116;-79
2023/07/02 05:08:05;;;;;;;17.73;6.32;;;15.20;99.90;;;;;;5049559;28;20069;-79
2023/07/02 05:10:30;;;;;;;16.15;6.47;;;15.30;99.90;;;;;;5049754;28;20128;-79
2023/07/02 05:12:56;;;;;;;16.23;6.10;;;15.40;99.90;;;;;;5049444;28;20489;-79
2023/07/02 05:15:21;;;;;;;16.70;6.38;;;15.60;99.90;;;;;;5050018;28;20040;-79
2023/07/02 05:17:47;;;;;;;17.27;6.28;;;15.60;99.90;;;;;;5049650;28;20040;-79
2023/07/02 05:20:12;;;;;;;14.75;6.65;;;15.70;99.90;;;;;;5049321;28;20033;-79
2023/07/02 05:22:38;;;;;;;14.68;5.85;;;15.60;99.90;;;;;;5032545;28;20403;-78
2023/07/02 05:25:04;;;;;;;17.08;5.80;;;15.60;99.90;;;;;;5049369;28;20408;-78
2023/07/02 05:27:29;;;;;;;21.85;6.10;;;15.50;99.90;;;;;;5049794;28;20071;-78
2023/07/02 05:29:55;;;;;;;15.13;5.50;;;15.40;99.90;;;;;;5049646;28;20084;-79
2023/07/02 05:32:20;;;;;;;15.60;5.85;;;15.40;99.90;;;;;;5049016;28;20044;-79
2023/07/02 05:34:46;;;;;;;16.45;5.97;;;15.40;99.90;;;;;;5049801;28;20048;-78
2023/07/02 05:37:11;;;;;;;11.85;4.85;;;15.40;99.90;;;;;;5049497;28;20081;-79
2023/07/02 05:39:37;;;;;;;17.20;5.85;;;15.60;99.90;;;;;;5049567;28;20033;-79
2023/07/02 05:42:03;;;;;;;14.32;5.80;;;15.80;99.90;;;;;;5050746;28;20037;-78
2023/07/02 05:44:29;;;;;;;12.05;5.55;;;15.80;99.90;;;;;;5049313;28;20051;-80
2023/07/02 05:46:54;;;;;;;16.42;6.05;;;15.90;99.90;;;;;;5049429;28;20114;-79
2023/07/02 05:49:20;;;;;;;18.95;5.53;;;15.90;99.90;;;;;;5049657;28;20071;-79
2023/07/02 05:51:45;;;;;;;18.85;5.45;;;15.90;99.90;;;;;;5049451;28;20073;-79
2023/07/02 05:54:11;;;;;;;20.30;5.53;;;15.90;99.90;;;;;;5048786;28;20029;-78
2023/07/02 05:56:36;;;;;;;15.82;5.55;;;15.80;99.90;;;;;;5049426;28;20029;-80
2023/07/02 05:59:02;;;;;;;14.85;5.82;;;15.80;99.90;;;;;;5049000;28;20033;-79
2023/07/02 06:01:27;;;;;;;15.77;5.53;;;15.80;99.90;;;;;;5049016;28;20500;-78
2023/07/02 06:03:53;;;;;;;12.73;5.05;;;15.80;99.90;;;;;;5048805;28;20033;-79
2023/07/02 06:06:20;;;;;;;14.77;5.32;;;15.90;99.90;;;;;;5049062;28;20523;-79
2023/07/02 06:08:46;;;;;;;16.25;6.00;;;15.80;99.90;;;;;;5049004;28;20051;-78
2023/07/02 06:11:12;;;;;;;14.50;5.90;;;15.90;99.90;;;;;;5049472;28;20404;-78
2023/07/02 06:13:38;;;;;;;15.20;5.28;;;15.90;99.90;;;;;;5051374;28;20428;-79
2023/07/02 06:16:03;;;;;;;11.77;5.18;;;15.90;99.90;;;;;;5065638;28;20048;-79
2023/07/02 06:18:29;;;;;;;18.38;6.30;;;15.90;99.90;;;;;;5050522;28;20060;-79
2023/07/02 06:20:54;;;;;;;16.02;5.72;;;16.10;99.90;;;;;;5051503;28;20118;-79
2023/07/02 06:23:20;;;;;;;13.60;5.15;;;16.20;99.90;;;;;;5034418;28;20067;-78
2023/07/02 06:25:46;;;;;;;19.52;5.60;;;16.40;99.90;;;;;;5051676;28;20041;-78
2023/07/02 06:28:11;;;;;;;15.30;5.57;;;16.60;99.90;;;;;;5052424;28;20043;-79
2023/07/02 06:30:37;;;;;;;15.57;6.00;;;16.90;99.90;;;;;;5049181;28;20072;-78
2023/07/02 06:33:02;;;;;;;13.13;5.63;;;17.10;99.90;;;;;;5033218;28;20037;-79
2023/07/02 06:35:28;;;;;;;18.55;5.78;;;17.10;99.90;;;;;;5050208;28;20033;-78
2023/07/02 06:37:53;;;;;;;17.23;5.38;;;17.00;99.90;;;;;;5050393;28;20033;-77
2023/07/02 06:40:22;;;;;;;18.15;5.88;;;16.80;99.90;;;;;;5050634;28;20410;-78
2023/07/02 06:42:48;;;;;;;13.65;5.03;;;16.90;99.90;;;;;;5050020;28;20505;-78
2023/07/02 06:45:13;;;;;;;20.70;5.50;;;17.10;99.90;;;;;;5050511;28;20064;-78
2023/07/02 06:47:39;;;;;;;13.38;4.10;;;17.30;99.90;;;;;;5035539;28;20036;-78
2023/07/02 06:50:05;;;;;;;14.60;4.38;;;17.40;99.90;;;;;;5054096;28;20051;-79
2023/07/02 06:52:30;;;;;;;12.00;3.60;;;17.40;99.90;;;;;;5035579;28;20086;-79
2023/07/02 06:54:56;;;;;;;9.90;4.13;;;17.40;99.90;;;;;;5052051;28;20078;-77
2023/07/02 06:57:23;;;;;;;10.77;3.83;;;17.40;99.90;;;;;;5053076;28;20082;-78
2023/07/02 06:59:48;;;;;;;19.17;4.20;;;17.60;99.90;;;;;;5053130;28;20115;-79
2023/07/02 07:02:14;;;;;;;15.60;4.10;;;17.80;99.90;;;;;;5041836;28;20163;-79
2023/07/02 07:04:39;;;;;;;11.05;3.85;;;18.00;99.90;;;;;;5049948;28;20072;-78
2023/07/02 07:07:05;;;;;;;15.60;3.75;;;17.90;99.90;;;;;;5051693;28;20048;-79
2023/07/02 07:09:31;;;;;;;12.07;4.00;;;17.80;99.90;;;;;;5036212;28;20039;-79
2023/07/02 07:11:57;;;;;;;12.43;3.70;;;17.70;99.90;;;;;;5052735;28;20122;-78
2023/07/02 07:14:22;;;;;;;12.63;3.08;;;17.80;99.90;;;;;;5052455;28;20412;-79
2023/07/02 07:16:48;;;;;;;10.52;3.13;;;17.90;99.90;;;;;;5051955;28;20040;-78
2023/07/02 07:19:14;;;;;;;8.48;2.78;;;17.80;99.90;;;;;;5052807;28;20036;-79
2023/07/02 07:21:40;;;;;;;9.32;3.28;;;17.90;99.90;;;;;;5052926;28;20451;-79
2023/07/02 07:24:06;;;;;;;12.50;3.47;;;18.00;99.90;;;;;;5035330;28;20036;-79
2023/07/02 07:26:31;;;;;;;9.57;3.55;;;18.20;99.90;;;;;;5053566;28;20556;-79
2023/07/02 07:28:57;;;;;;;9.52;3.17;;;18.30;99.90;;;;;;5052088;28;20044;-79
2023/07/02 07:31:24;;;;;;;12.35;3.05;;;18.40;99.90;;;;;;5052424;28;20040;-80
2023/07/02 07:33:49;;;;;;;9.82;3.10;;;18.50;99.90;;;;;;5052079;28;20537;-81
2023/07/02 07:36:15;;;;;;;10.32;3.00;;;18.50;99.90;;;;;;5036467;28;20036;-80
2023/07/02 07:38:42;;;;;;;11.93;3.03;;;18.60;99.90;;;;;;5051311;28;20041;-77
2023/07/02 07:41:08;;;;;;;10.65;2.65;;;18.60;99.90;;;;;;5050894;28;20051;-79
2023/07/02 07:43:34;;;;;;;10.60;3.53;;;18.70;99.90;;;;;;5051018;28;20037;-80
2023/07/02 07:45:59;;;;;;;15.07;3.10;;;18.60;99.90;;;;;;5051023;28;20544;-79
2023/07/02 07:48:25;;;;;;;9.93;3.38;;;18.40;99.90;;;;;;5051164;28;20316;-77
2023/07/02 07:50:50;;;;;;;7.97;2.60;;;18.40;99.90;;;;;;5049381;28;20516;-77
2023/07/02 07:53:16;;;;;;;9.10;2.70;;;18.30;99.90;;;;;;5050114;28;20049;-78
2023/07/02 07:55:41;;;;;;;10.95;3.08;;;18.50;99.90;;;;;;5035522;28;20052;-80
2023/07/02 07:58:07;;;;;;;10.60;2.78;;;18.50;99.90;;;;;;5049221;28;20048;-77
2023/07/02 08:00:32;;;;;;;9.15;2.88;;;18.60;99.90;;;;;;5050714;28;20184;-79
2023/07/02 08:02:59;;;;;;;7.38;2.85;;;18.80;99.90;;;;;;5050242;28;20057;-79
2023/07/02 08:05:25;;;;;;;13.75;3.45;;;19.10;99.90;;;;;;5050216;28;20048;-78
2023/07/02 08:07:53;;;;;;;11.40;3.10;;;19.30;99.90;;;;;;5046616;28;20119;-78
2023/07/02 08:10:19;;;;;;;15.57;3.50;;;19.30;99.90;;;;;;5056919;28;20587;-79
2023/07/02 08:12:46;;;;;;;11.60;3.38;;;19.00;99.90;;;;;;5050423;28;20124;-78
2023/07/02 08:15:11;;;;;;;10.27;3.10;;;18.90;99.90;;;;;;5050327;28;20115;-78
2023/07/02 08:17:37;;;;;;;10.15;3.30;;;18.60;99.90;;;;;;5050804;28;20148;-79
2023/07/02 08:20:04;;;;;;;10.63;3.35;;;18.50;99.90;;;;;;5034379;28;20504;-77
2023/07/02 08:22:30;;;;;;;11.32;3.10;;;18.30;99.90;;;;;;5035002;28;20041;-79
2023/07/02 08:24:55;;;;;;;13.18;3.15;;;18.20;99.90;;;;;;5049091;28;20515;-80
2023/07/02 08:27:21;;;;;;;11.57;3.38;;;18.30;99.90;;;;;;5050333;28;20037;-77
2023/07/02 08:29:47;;;;;;;7.28;2.97;;;18.30;99.90;;;;;;5050416;28;20037;-78
2023/07/02 08:32:13;;;;;;;7.47;3.20;;;18.10;99.90;;;;;;5053651;28;20048;-78
2023/07/02 08:34:39;;;;;;;13.60;4.07;;;18.20;99.90;;;;;;5049937;28;20047;-80
2023/07/02 08:37:04;;;;;;;10.35;3.90;;;18.10;99.90;;;;;;5033951;28;20115;-81
2023/07/02 08:39:30;;;;;;;13.45;4.03;;;18.00;99.90;;;;;;5050303;28;20039;-77
2023/07/02 08:41:56;;;;;;;12.60;4.00;;;17.90;99.90;;;;;;5048591;28;20037;-76
2023/07/02 08:44:22;;;;;;;10.77;3.70;;;17.80;99.90;;;;;;5049283;28;20083;-76
2023/07/02 08:46:50;;;;;;;9.43;3.53;;;17.70;99.90;;;;;;5049408;28;20140;-73
2023/07/02 08:49:16;;;;;;;13.85;4.03;;;17.50;99.90;;;;;;5049624;28;20151;-76
2023/07/02 08:51:44;;;;;;;11.38;3.78;;;17.50;99.90;;;;;;5049576;28;20045;-75
2023/07/02 08:54:10;;;;;;;10.32;3.95;;;17.40;99.90;;;;;;5044348;28;20036;-79
2023/07/02 08:56:36;;;;;;;12.50;3.60;;;17.40;99.90;;;;;;5033081;28;20036;-79
2023/07/02 08:59:01;;;;;;;12.25;3.90;;;17.40;99.90;;;;;;5049862;28;20113;-78
2023/07/02 09:01:27;;;;;;;11.45;3.70;;;17.40;99.90;;;;;;5048602;28;20041;-79
2023/07/02 09:04:00;;;;;;;13.23;4.10;;;17.60;99.90;;;;;;5046279;28;20083;-78
2023/07/02 09:06:25;;;;;;;14.10;3.53;;;18.00;99.90;;;;;;5039183;28;20038;-79
2023/07/02 09:08:51;;;;;;;11.20;3.28;;;18.40;99.90;;;;;;5029811;28;20400;-80
2023/07/02 09:11:17;;;;;;;11.93;3.08;;;18.60;99.90;;;;;;5048761;28;20096;-80
2023/07/02 09:13:52;;;;;;;10.90;3.30;;;18.60;99.90;;;;;;5046983;28;20158;-80
2023/07/02 09:16:29;;;;;;;8.55;3.50;;;18.50;99.90;;;;;;5049230;28;20096;-80
2023/07/02 09:18:59;;;;;;;12.43;3.33;;;18.30;99.90;;;;;;5056473;28;20041;-79
2023/07/02 09:21:45;;;;;;;11.93;3.50;;;18.10;99.90;;;;;;5047914;28;20112;-79
2023/07/02 09:24:20;;;;;;;10.23;2.92;;;18.30;99.90;;;;;;5062597;28;20049;-79
2023/07/02 09:26:51;;;;;;;17.80;4.13;;;18.70;99.90;;;;;;5051862;28;20036;-78
2023/07/02 09:29:25;;;;;;;10.63;2.95;;;19.10;99.90;;;;;;5052924;28;20036;-79
2023/07/02 09:31:51;;;;;;;8.65;3.13;;;19.20;99.90;;;;;;5046635;28;20381;-78
2023/07/02 09:34:17;;;;;;;9.20;2.50;;;19.40;99.90;;;;;;5058641;28;20409;-76
2023/07/02 09:36:43;;;;;;;10.63;3.08;;;19.40;99.90;;;;;;5054634;28;20036;-77
2023/07/02 09:39:13;;;;;;;8.68;2.63;;;19.60;99.90;;;;;;5048712;28;20517;-78
2023/07/02 09:41:41;;;;;;;14.07;2.65;;;19.70;99.90;;;;;;5048822;28;20045;-77
2023/07/02 09:44:09;;;;;;;9.68;2.90;;;19.80;99.90;;;;;;5051767;28;20124;-77
2023/07/02 09:46:38;;;;;;;8.07;2.75;;;20.00;99.90;;;;;;5051401;28;20338;-78
2023/07/02 09:49:06;;;;;;;11.43;3.00;;;20.20;99.90;;;;;;5049672;28;20696;-78
2023/07/02 09:51:32;;;;;;;7.55;2.78;;;20.30;99.90;;;;;;5044164;28;20052;-79
2023/07/02 09:53:58;;;;;;;9.07;2.78;;;20.30;99.90;;;;;;5047278;28;20131;-78
2023/07/02 09:56:24;;;;;;;12.07;3.03;;;19.90;99.90;;;;;;5024263;28;20038;-76
2023/07/02 09:58:50;;;;;;;11.00;2.83;;;19.80;99.90;;;;;;5035279;28;20103;-78
2023/07/02 10:01:15;;;;;;;11.68;2.67;;;19.90;99.90;;;;;;5058293;28;20075;-78
2023/07/02 10:03:41;;;;;;;10.30;3.42;;;20.10;99.90;;;;;;5051758;28;20075;-80
2023/07/02 10:06:07;;;;;;;7.20;2.70;;;20.00;99.90;;;;;;5052496;28;20041;-78
2023/07/02 10:08:33;;;;;;;9.52;2.55;;;19.80;99.90;;;;;;5049101;28;20037;-78
2023/07/02 10:11:13;;;;;;;8.10;2.78;;;19.40;99.90;;;;;;5048437;28;20107;-77
2023/07/02 10:13:41;;;;;;;7.35;2.72;;;19.10;99.90;;;;;;5056307;28;20589;-77
2023/07/02 10:16:07;;;;;;;9.60;2.70;;;19.00;99.90;;;;;;5051303;28;20033;-77
2023/07/02 10:18:34;;;;;;;12.55;3.30;;;19.10;99.90;;;;;;5058132;28;20534;-78
2023/07/02 10:20:59;;;;;;;9.15;2.95;;;19.00;99.90;;;;;;5052470;28;20048;-78
2023/07/02 10:23:35;;;;;;;9.07;2.38;;;19.00;99.90;;;;;;5048819;28;20041;-78
2023/07/02 10:26:18;;;;;;;8.77;2.85;;;19.40;99.90;;;;;;5063926;28;20049;-78
2023/07/02 10:28:56;;;;;;;10.25;3.42;;;19.70;99.90;;;;;;5061323;28;20037;-78
2023/07/02 10:31:22;;;;;;;12.07;3.10;;;19.70;99.90;;;;;;5061812;28;20072;-78
2023/07/02 10:33:48;;;;;;;9.02;2.90;;;19.60;99.90;;;;;;5049469;28;20366;-78
2023/07/02 10:36:22;;;;;;;10.10;3.03;;;19.40;99.90;;;;;;5051624;28;20162;-80
2023/07/02 10:38:48;;;;;;;11.40;2.90;;;19.20;99.90;;;;;;5051728;28;20104;-78
2023/07/02 10:41:27;;;;;;;9.02;2.30;;;19.20;99.90;;;;;;5048661;28;20124;-78
2023/07/02 10:43:54;;;;;;;9.65;2.97;;;19.40;99.90;;;;;;5059498;28;20099;-78
2023/07/02 10:46:22;;;;;;;9.98;2.72;;;19.50;99.90;;;;;;5050684;28;20037;-78
2023/07/02 10:48:55;;;;;;;8.40;2.55;;;19.70;99.90;;;;;;5059366;28;20645;-77
2023/07/02 10:51:21;;;;;;;8.00;2.38;;;20.20;99.90;;;;;;5055769;28;20044;-77
2023/07/02 10:53:59;;;;;;;10.38;3.03;;;20.70;99.90;;;;;;5062203;28;20064;-79
2023/07/02 10:56:27;;;;;;;10.40;2.80;;;21.10;99.90;;;;;;5049019;28;20040;-77
2023/07/02 10:58:53;;;;;;;9.35;3.20;;;21.10;99.90;;;;;;5051061;28;20041;-77
2023/07/02 11:01:27;;;;;;;8.57;3.08;;;20.90;99.90;;;;;;5058664;28;20045;-78
2023/07/02 11:04:04;;;;;;;9.05;2.67;;;21.10;99.90;;;;;;5050811;28;20063;-78
2023/07/02 11:06:32;;;;;;;8.32;2.65;;;21.10;99.90;;;;;;5060278;28;20060;-78
2023/07/02 11:08:58;;;;;;;10.82;3.30;;;21.00;99.90;;;;;;5049356;28;20094;-78
2023/07/02 11:11:24;;;;;;;6.13;2.42;;;21.00;99.90;;;;;;5061912;28;20395;-78
2023/07/02 11:13:51;;;;;;;8.35;3.00;;;20.80;99.90;;;;;;5060587;28;20082;-80
2023/07/02 11:16:26;;;;;;;9.10;2.88;;;20.70;99.90;;;;;;5050647;28;20029;-77
2023/07/02 11:18:53;;;;;;;7.53;2.53;;;20.40;99.90;;;;;;5043519;28;20598;-78
2023/07/02 11:21:18;;;;;;;9.10;2.90;;;20.20;99.90;;;;;;5050129;28;20067;-78
2023/07/02 11:23:44;;;;;;;9.85;2.53;;;20.20;99.90;;;;;;5063544;28;20033;-78
2023/07/02 11:26:10;;;;;;;8.63;3.03;;;20.20;99.90;;;;;;5049299;28;20028;-79
2023/07/02 11:28:35;;;;;;;8.10;2.53;;;20.00;99.90;;;;;;5051002;28;20037;-77
2023/07/02 11:31:03;;;;;;;11.93;2.65;;;20.00;99.90;;;;;;5065664;28;20124;-77
2023/07/02 11:33:39;;;;;;;9.48;2.72;;;20.00;99.90;;;;;;5049731;28;20042;-77
2023/07/02 11:36:06;;;;;;;8.10;2.47;;;20.10;99.90;;;;;;5047408;28;20036;-77
2023/07/02 11:38:34;;;;;;;8.60;2.45;;;20.50;99.90;;;;;;5043108;28;20045;-78
2023/07/02 11:40:59;;;;;;;10.57;2.22;;;20.80;99.90;;;;;;5050535;28;20037;-78
2023/07/02 11:43:26;;;;;;;7.25;2.30;;;20.70;99.90;;;;;;5046227;28;20056;-78
2023/07/02 11:45:52;;;;;;;6.78;2.13;;;20.20;99.90;;;;;;5048382;28;20040;-78
2023/07/02 11:48:17;;;;;;;7.15;2.47;;;20.40;99.90;;;;;;5060086;28;20075;-78
2023/07/02 11:50:43;;;;;;;8.38;2.33;;;20.60;99.90;;;;;;5044420;28;20041;-78
2023/07/02 11:53:08;;;;;;;7.25;2.20;;;20.80;99.90;;;;;;5053974;28;20075;-78
2023/07/02 11:55:34;;;;;;;5.90;2.00;;;21.10;99.90;;;;;;5050231;28;20382;-78
2023/07/02 11:57:59;;;;;;;7.90;2.35;;;21.30;99.90;;;;;;5033970;28;20103;-78
2023/07/02 12:00:26;;;;;;;9.27;2.38;;;21.30;99.90;;;;;;5063102;28;20496;-78
2023/07/02 12:02:52;;;;;;;6.80;2.53;;;21.40;99.90;;;;;;5049916;28;20056;-78
2023/07/02 12:05:19;;;;;;;6.57;2.22;;;21.20;99.50;;;;;;5057293;28;20048;-77
2023/07/02 12:07:44;;;;;;;5.65;2.22;;;20.90;99.80;;;;;;5051479;28;20047;-79
2023/07/02 12:10:10;;;;;;;6.68;2.03;;;21.10;99.90;;;;;;5047822;28;20068;-78
2023/07/02 12:12:36;;;;;;;7.65;2.55;;;21.50;99.30;;;;;;5047469;28;20037;-77
2023/07/02 12:15:02;;;;;;;6.65;2.20;;;21.40;99.60;;;;;;5048907;28;20094;-78
2023/07/02 12:17:27;;;;;;;6.57;2.60;;;21.40;99.60;;;;;;5050108;28;20110;-78
2023/07/02 12:19:53;;;;;;;8.75;2.17;;;21.60;99.90;;;;;;5050096;28;20079;-77
2023/07/02 12:22:21;;;;;;;6.53;2.42;;;21.90;99.90;;;;;;5066445;28;20032;-77
2023/07/02 12:24:47;;;;;;;8.82;2.53;;;21.70;99.80;;;;;;5050094;28;20124;-76
2023/07/02 12:27:13;;;;;;;10.77;2.40;;;21.30;99.90;;;;;;5050235;28;20112;-77
2023/07/02 12:29:38;;;;;;;8.45;2.45;;;20.80;99.90;;;;;;5049754;28;20051;-78
2023/07/02 12:32:04;;;;;;;9.00;2.50;;;20.50;99.90;;;;;;5048582;28;20561;-80
2023/07/02 12:34:31;;;;;;;9.35;2.40;;;20.30;99.90;;;;;;5047707;28;20033;-78